»·PEaware :: N51254 KBUR-KSBA

N51254 :: KBUR-KSBA

FLIGHT INFORMATION

Flight Status: Arrived
Operator: Privately registered:
United States
More flights under this callsign
Pilot: Hasan B. (9605)
Aircraft: CESSNA 172 SKYHAWK
(C172)
More flights by this aircraft type
Origin: KBUR Bob Hope-Burbank
United States
Destination: KSBA Santa Barbara Mun
United States
More flights between these airports :: More routes between these airports
Route: +
File this flight plan on PilotEdge
Remarks:
Altitude:
(Current/Filed)
4,500ft
Speed:
(Current/Filed)
0kts
Departed: 04-Oct-18 08:58 AM
Arrived: 04-Oct-18 10:09 AM
Distance/Time
Traveled:
74nm/1:11
Distance/Time
To Go:
Arrived

Flight Plot

Page will automatically refresh every two minutes.


Map Options




Map Legend


Flown Route
Filed Route
Departure Airport
Arrival Airport
Navaid (VOR, NDB)
Fix

Horizontal Profiles

Position Reports

Time Latitude Longitude Heading Altitude Ground
Speed
04-Oct-18 08:55 34.210739 -118.357947 257 758ft 0kts
04-Oct-18 08:56 34.210739 -118.357947 257 758ft 0kts
04-Oct-18 08:57 34.210739 -118.357947 257 758ft 0kts
04-Oct-18 08:58 34.210728 -118.358002 253 758ft 1kts
04-Oct-18 08:59 34.209939 -118.358730 242 757ft 6kts
04-Oct-18 09:00 34.207692 -118.359178 167 748ft 56kts
04-Oct-18 09:01 34.194245 -118.356870 177 1113ft 83kts
04-Oct-18 09:02 34.180748 -118.352741 165 1635ft 82kts
04-Oct-18 09:03 34.166335 -118.347934 163 2128ft 86kts
04-Oct-18 09:04 34.150594 -118.341011 158 2399ft 96kts
04-Oct-18 09:05 34.135147 -118.332503 151 2402ft 100kts
04-Oct-18 09:06 34.119259 -118.327197 202 2435ft 100kts
04-Oct-18 09:07 34.116626 -118.345358 282 2447ft 106kts
04-Oct-18 09:08 34.120949 -118.367754 285 2929ft 97kts
04-Oct-18 09:09 34.126677 -118.388421 282 3368ft 95kts
04-Oct-18 09:10 34.130899 -118.408545 281 3824ft 93kts
04-Oct-18 09:11 34.134960 -118.428373 285 4227ft 95kts
04-Oct-18 09:12 34.139868 -118.448185 285 4465ft 99kts
04-Oct-18 09:13 34.145671 -118.472108 287 4548ft 99kts
04-Oct-18 09:14 34.155126 -118.511667 286 4603ft 97kts
04-Oct-18 09:15 34.162535 -118.550216 282 4541ft 101kts
04-Oct-18 09:16 34.169780 -118.589972 282 4549ft 99kts
04-Oct-18 09:17 34.175164 -118.623607 279 4524ft 100kts
04-Oct-18 09:18 34.188264 -118.704010 284 4493ft 100kts
04-Oct-18 09:19 34.194177 -118.727481 285 4509ft 99kts
04-Oct-18 09:20 34.197010 -118.739736 286 4507ft 99kts
04-Oct-18 09:21 34.202730 -118.763135 282 4503ft 99kts
04-Oct-18 09:22 34.205715 -118.777971 284 4492ft 100kts
04-Oct-18 09:23 34.209151 -118.800338 276 4495ft 99kts
04-Oct-18 09:24 34.211632 -118.816287 283 4483ft 100kts
04-Oct-18 09:25 34.217314 -118.840693 283 4489ft 99kts
04-Oct-18 09:26 34.221277 -118.859471 284 4483ft 100kts
04-Oct-18 09:27 34.224389 -118.880081 278 4488ft 99kts
04-Oct-18 09:28 34.227780 -118.900248 286 4512ft 97kts
04-Oct-18 09:29 34.232051 -118.920596 278 4505ft 99kts
04-Oct-18 09:30 34.234643 -118.940623 277 4554ft 95kts
04-Oct-18 09:31 34.237216 -118.960671 279 4563ft 97kts
04-Oct-18 09:32 34.241603 -118.980130 289 4552ft 99kts
04-Oct-18 09:33 34.248401 -118.999512 292 4555ft 99kts
04-Oct-18 09:34 34.255032 -119.018878 292 4552ft 99kts
04-Oct-18 09:35 34.262045 -119.038225 295 4546ft 99kts
04-Oct-18 09:36 34.268227 -119.058849 281 4539ft 100kts
04-Oct-18 09:37 34.271302 -119.080114 279 4474ft 104kts
04-Oct-18 09:38 34.275717 -119.102109 286 4434ft 104kts
04-Oct-18 09:39 34.281332 -119.123305 285 4399ft 103kts
04-Oct-18 09:40 34.285565 -119.143586 281 4385ft 102kts
04-Oct-18 09:41 34.289708 -119.165029 282 4387ft 100kts
04-Oct-18 09:42 34.295033 -119.191469 282 4386ft 100kts
04-Oct-18 09:43 34.299004 -119.212722 283 4383ft 99kts
04-Oct-18 09:44 34.302785 -119.233348 280 4370ft 100kts
04-Oct-18 09:45 34.306673 -119.255496 284 4389ft 98kts
04-Oct-18 09:46 34.314293 -119.288837 287 4408ft 98kts
04-Oct-18 09:47 34.321630 -119.334018 277 4441ft 98kts
04-Oct-18 09:48 34.330644 -119.377261 288 4481ft 97kts
04-Oct-18 09:49 34.341871 -119.420708 281 4497ft 98kts
04-Oct-18 09:50 34.351241 -119.466501 286 4513ft 98kts
04-Oct-18 09:51 34.356707 -119.491121 284 4497ft 99kts
04-Oct-18 09:52 34.360853 -119.514067 280 4467ft 102kts
04-Oct-18 09:53 34.364744 -119.537395 281 4445ft 102kts
04-Oct-18 09:54 34.369146 -119.560820 285 4425ft 102kts
04-Oct-18 09:55 34.374875 -119.582825 288 4404ft 102kts
04-Oct-18 09:56 34.380568 -119.605171 286 4416ft 99kts
04-Oct-18 09:57 34.384749 -119.626616 280 4379ft 103kts
04-Oct-18 09:58 34.390491 -119.648206 296 4129ft 101kts
04-Oct-18 09:59 34.399471 -119.665483 307 3718ft 98kts
04-Oct-18 10:00 34.408960 -119.680525 308 3371ft 96kts
04-Oct-18 10:01 34.417917 -119.696520 301 3025ft 94kts
04-Oct-18 10:02 34.426132 -119.712795 302 2695ft 96kts
04-Oct-18 10:03 34.434706 -119.728935 296 2393ft 94kts
04-Oct-18 10:04 34.438970 -119.746964 271 2048ft 98kts
04-Oct-18 10:05 34.439625 -119.767668 275 1672ft 98kts
04-Oct-18 10:06 34.441463 -119.788023 278 1355ft 95kts
04-Oct-18 10:07 34.444126 -119.807187 278 1130ft 88kts
04-Oct-18 10:08 34.446746 -119.826177 283 1040ft 90kts
04-Oct-18 10:09 34.448240 -119.844941 247 967ft 78kts
04-Oct-18 10:10 34.437754 -119.842394 166 388ft 64kts
04-Oct-18 10:11 34.427210 -119.839276 165 12ft 37kts
04-Oct-18 10:12 34.424414 -119.837748 115 12ft 9kts
04-Oct-18 10:13 34.422280 -119.836468 303 12ft 0kts

Navigation Log

Ident Type
Flight plan parsing failed, navigation log unavailable